sensor_id;sensor_type;location;lat;lon;timestamp;temperature;humidity
5023;DHT22;2530;47.990;7.866;2023-04-25T00:01:59;10.50;57.70
5023;DHT22;2530;47.990;7.866;2023-04-25T00:04:25;10.50;55.30
5023;DHT22;2530;47.990;7.866;2023-04-25T00:06:52;10.50;57.60
5023;DHT22;2530;47.990;7.866;2023-04-25T00:09:18;10.40;58.40
5023;DHT22;2530;47.990;7.866;2023-04-25T00:11:44;10.50;55.00
5023;DHT22;2530;47.990;7.866;2023-04-25T00:14:09;10.50;53.90
5023;DHT22;2530;47.990;7.866;2023-04-25T00:16:35;10.40;55.70
5023;DHT22;2530;47.990;7.866;2023-04-25T00:19:01;10.20;61.40
5023;DHT22;2530;47.990;7.866;2023-04-25T00:21:27;10.20;63.90
5023;DHT22;2530;47.990;7.866;2023-04-25T00:23:54;10.20;73.00
5023;DHT22;2530;47.990;7.866;2023-04-25T00:26:20;10.20;77.60
5023;DHT22;2530;47.990;7.866;2023-04-25T00:28:48;10.10;74.60
5023;DHT22;2530;47.990;7.866;2023-04-25T00:31:14;10.00;70.80
5023;DHT22;2530;47.990;7.866;2023-04-25T00:33:40;10.00;72.80
5023;DHT22;2530;47.990;7.866;2023-04-25T00:36:06;10.00;79.60
5023;DHT22;2530;47.990;7.866;2023-04-25T00:38:32;10.00;81.20
5023;DHT22;2530;47.990;7.866;2023-04-25T00:40:57;10.10;82.70
5023;DHT22;2530;47.990;7.866;2023-04-25T00:43:25;10.00;88.40
5023;DHT22;2530;47.990;7.866;2023-04-25T00:45:52;9.90;92.50
5023;DHT22;2530;47.990;7.866;2023-04-25T00:48:18;9.90;95.80
5023;DHT22;2530;47.990;7.866;2023-04-25T00:50:53;9.90;98.20
5023;DHT22;2530;47.990;7.866;2023-04-25T00:53:20;9.90;98.80
5023;DHT22;2530;47.990;7.866;2023-04-25T00:55:46;9.90;95.70
5023;DHT22;2530;47.990;7.866;2023-04-25T00:58:11;9.90;99.90
5023;DHT22;2530;47.990;7.866;2023-04-25T01:00:37;9.90;95.60
5023;DHT22;2530;47.990;7.866;2023-04-25T01:03:03;9.90;98.00
5023;DHT22;2530;47.990;7.866;2023-04-25T01:05:29;9.90;98.40
5023;DHT22;2530;47.990;7.866;2023-04-25T01:07:54;9.90;99.10
5023;DHT22;2530;47.990;7.866;2023-04-25T01:10:20;9.80;99.90
5023;DHT22;2530;47.990;7.866;2023-04-25T01:12:46;9.80;99.90
5023;DHT22;2530;47.990;7.866;2023-04-25T01:15:12;9.90;99.90
5023;DHT22;2530;47.990;7.866;2023-04-25T01:17:37;9.70;99.90
5023;DHT22;2530;47.990;7.866;2023-04-25T01:20:05;9.70;99.90
5023;DHT22;2530;47.990;7.866;2023-04-25T01:22:32;9.70;99.90
5023;DHT22;2530;47.990;7.866;2023-04-25T01:24:58;9.70;99.90
5023;DHT22;2530;47.990;7.866;2023-04-25T01:27:24;9.70;99.90
5023;DHT22;2530;47.990;7.866;2023-04-25T01:29:50;9.70;99.90
5023;DHT22;2530;47.990;7.866;2023-04-25T01:32:17;9.80;99.90
5023;DHT22;2530;47.990;7.866;2023-04-25T01:34:42;9.80;99.90
5023;DHT22;2530;47.990;7.866;2023-04-25T01:37:08;9.70;99.90
5023;DHT22;2530;47.990;7.866;2023-04-25T01:39:34;9.80;99.90
5023;DHT22;2530;47.990;7.866;2023-04-25T01:42:00;9.80;99.90
5023;DHT22;2530;47.990;7.866;2023-04-25T01:44:25;9.80;99.90
5023;DHT22;2530;47.990;7.866;2023-04-25T01:46:51;9.70;99.90
5023;DHT22;2530;47.990;7.866;2023-04-25T01:49:17;9.70;99.90
5023;DHT22;2530;47.990;7.866;2023-04-25T01:51:43;9.80;99.90
5023;DHT22;2530;47.990;7.866;2023-04-25T01:54:10;10.00;97.60
5023;DHT22;2530;47.990;7.866;2023-04-25T01:56:37;10.10;95.40
5023;DHT22;2530;47.990;7.866;2023-04-25T01:59:04;10.10;94.80
5023;DHT22;2530;47.990;7.866;2023-04-25T02:01:30;10.00;96.30
5023;DHT22;2530;47.990;7.866;2023-04-25T02:03:56;10.00;92.60
5023;DHT22;2530;47.990;7.866;2023-04-25T02:06:21;10.10;85.40
5023;DHT22;2530;47.990;7.866;2023-04-25T02:08:47;10.20;79.10
5023;DHT22;2530;47.990;7.866;2023-04-25T02:11:13;10.10;83.30
5023;DHT22;2530;47.990;7.866;2023-04-25T02:13:38;10.10;91.80
5023;DHT22;2530;47.990;7.866;2023-04-25T02:16:04;10.10;80.30
5023;DHT22;2530;47.990;7.866;2023-04-25T02:18:30;10.10;75.30
5023;DHT22;2530;47.990;7.866;2023-04-25T02:20:57;10.10;76.60
5023;DHT22;2530;47.990;7.866;2023-04-25T02:23:23;10.10;80.60
5023;DHT22;2530;47.990;7.866;2023-04-25T02:25:48;10.00;73.60
5023;DHT22;2530;47.990;7.866;2023-04-25T02:28:14;10.10;72.10
5023;DHT22;2530;47.990;7.866;2023-04-25T02:30:40;10.10;76.80
5023;DHT22;2530;47.990;7.866;2023-04-25T02:33:05;10.10;74.60
5023;DHT22;2530;47.990;7.866;2023-04-25T02:35:31;10.10;76.10
5023;DHT22;2530;47.990;7.866;2023-04-25T02:37:57;10.00;81.70
5023;DHT22;2530;47.990;7.866;2023-04-25T02:40:22;10.10;78.70
5023;DHT22;2530;47.990;7.866;2023-04-25T02:42:48;10.10;78.40
5023;DHT22;2530;47.990;7.866;2023-04-25T02:45:13;10.10;76.60
5023;DHT22;2530;47.990;7.866;2023-04-25T02:47:39;10.00;79.80
5023;DHT22;2530;47.990;7.866;2023-04-25T02:50:05;10.10;83.70
5023;DHT22;2530;47.990;7.866;2023-04-25T02:52:31;10.10;88.60
5023;DHT22;2530;47.990;7.866;2023-04-25T02:54:57;10.00;86.50
5023;DHT22;2530;47.990;7.866;2023-04-25T02:57:22;10.10;92.40
5023;DHT22;2530;47.990;7.866;2023-04-25T02:59:48;10.00;81.20
5023;DHT22;2530;47.990;7.866;2023-04-25T03:02:13;10.10;69.70
5023;DHT22;2530;47.990;7.866;2023-04-25T03:04:39;10.10;69.90
5023;DHT22;2530;47.990;7.866;2023-04-25T03:07:05;10.10;70.50
5023;DHT22;2530;47.990;7.866;2023-04-25T03:09:30;10.10;79.40
5023;DHT22;2530;47.990;7.866;2023-04-25T03:11:56;10.10;68.70
5023;DHT22;2530;47.990;7.866;2023-04-25T03:14:21;10.10;85.90
5023;DHT22;2530;47.990;7.866;2023-04-25T03:16:47;10.00;68.60
5023;DHT22;2530;47.990;7.866;2023-04-25T03:19:12;10.00;67.80
5023;DHT22;2530;47.990;7.866;2023-04-25T03:21:41;10.00;78.10
5023;DHT22;2530;47.990;7.866;2023-04-25T03:24:06;10.00;82.70
5023;DHT22;2530;47.990;7.866;2023-04-25T03:26:32;9.90;98.40
5023;DHT22;2530;47.990;7.866;2023-04-25T03:28:57;9.90;94.20
5023;DHT22;2530;47.990;7.866;2023-04-25T03:31:23;10.10;58.90
5023;DHT22;2530;47.990;7.866;2023-04-25T03:33:49;10.10;54.80
5023;DHT22;2530;47.990;7.866;2023-04-25T03:36:14;10.10;51.50
5023;DHT22;2530;47.990;7.866;2023-04-25T03:38:40;10.10;49.90
5023;DHT22;2530;47.990;7.866;2023-04-25T03:41:07;10.20;45.60
5023;DHT22;2530;47.990;7.866;2023-04-25T03:43:33;10.20;47.30
5023;DHT22;2530;47.990;7.866;2023-04-25T03:45:58;10.10;56.10
5023;DHT22;2530;47.990;7.866;2023-04-25T03:48:25;10.10;55.20
5023;DHT22;2530;47.990;7.866;2023-04-25T03:50:52;9.90;88.80
5023;DHT22;2530;47.990;7.866;2023-04-25T03:53:17;9.80;79.50
5023;DHT22;2530;47.990;7.866;2023-04-25T03:55:43;9.60;99.90
5023;DHT22;2530;47.990;7.866;2023-04-25T03:58:08;9.30;99.90
5023;DHT22;2530;47.990;7.866;2023-04-25T04:00:34;9.10;99.90
5023;DHT22;2530;47.990;7.866;2023-04-25T04:03:00;9.10;99.90
5023;DHT22;2530;47.990;7.866;2023-04-25T04:05:25;8.90;99.90
5023;DHT22;2530;47.990;7.866;2023-04-25T04:07:51;8.80;99.90
5023;DHT22;2530;47.990;7.866;2023-04-25T04:10:16;8.70;99.90
5023;DHT22;2530;47.990;7.866;2023-04-25T04:12:42;8.70;99.90
5023;DHT22;2530;47.990;7.866;2023-04-25T04:15:08;8.60;99.90
5023;DHT22;2530;47.990;7.866;2023-04-25T04:17:35;8.60;99.90
5023;DHT22;2530;47.990;7.866;2023-04-25T04:20:00;8.70;99.90
5023;DHT22;2530;47.990;7.866;2023-04-25T04:22:26;8.60;99.90
5023;DHT22;2530;47.990;7.866;2023-04-25T04:24:51;8.50;99.90
5023;DHT22;2530;47.990;7.866;2023-04-25T04:27:18;8.40;99.90
5023;DHT22;2530;47.990;7.866;2023-04-25T04:29:45;8.40;99.90
5023;DHT22;2530;47.990;7.866;2023-04-25T04:32:11;8.40;99.90
5023;DHT22;2530;47.990;7.866;2023-04-25T04:34:37;8.50;99.90
5023;DHT22;2530;47.990;7.866;2023-04-25T04:37:04;8.50;99.90
5023;DHT22;2530;47.990;7.866;2023-04-25T04:39:30;8.50;99.90
5023;DHT22;2530;47.990;7.866;2023-04-25T04:41:56;8.50;99.90
5023;DHT22;2530;47.990;7.866;2023-04-25T04:44:21;8.50;99.90
5023;DHT22;2530;47.990;7.866;2023-04-25T04:46:46;8.60;99.90
5023;DHT22;2530;47.990;7.866;2023-04-25T04:49:12;8.50;99.90
5023;DHT22;2530;47.990;7.866;2023-04-25T04:51:41;8.50;99.90
5023;DHT22;2530;47.990;7.866;2023-04-25T04:54:09;8.60;99.90
5023;DHT22;2530;47.990;7.866;2023-04-25T04:56:35;8.40;99.90
5023;DHT22;2530;47.990;7.866;2023-04-25T04:59:00;8.50;99.90
5023;DHT22;2530;47.990;7.866;2023-04-25T05:01:28;8.40;99.90
5023;DHT22;2530;47.990;7.866;2023-04-25T05:03:55;8.40;99.90
5023;DHT22;2530;47.990;7.866;2023-04-25T05:06:26;8.40;99.90
5023;DHT22;2530;47.990;7.866;2023-04-25T05:08:52;8.40;99.90
5023;DHT22;2530;47.990;7.866;2023-04-25T05:11:18;8.50;99.90
5023;DHT22;2530;47.990;7.866;2023-04-25T05:13:44;8.50;99.90
5023;DHT22;2530;47.990;7.866;2023-04-25T05:16:11;8.50;99.90
5023;DHT22;2530;47.990;7.866;2023-04-25T05:18:37;8.40;99.90
5023;DHT22;2530;47.990;7.866;2023-04-25T05:21:02;8.50;99.90
5023;DHT22;2530;47.990;7.866;2023-04-25T05:23:28;8.50;99.90
5023;DHT22;2530;47.990;7.866;2023-04-25T05:25:55;8.50;99.90
5023;DHT22;2530;47.990;7.866;2023-04-25T05:28:21;8.80;99.90
5023;DHT22;2530;47.990;7.866;2023-04-25T05:30:46;8.90;99.90
5023;DHT22;2530;47.990;7.866;2023-04-25T05:33:12;8.70;99.90
5023;DHT22;2530;47.990;7.866;2023-04-25T05:35:37;8.40;99.90
5023;DHT22;2530;47.990;7.866;2023-04-25T05:38:03;8.20;99.90
5023;DHT22;2530;47.990;7.866;2023-04-25T05:40:28;8.10;99.90
5023;DHT22;2530;47.990;7.866;2023-04-25T05:42:54;8.00;99.90
5023;DHT22;2530;47.990;7.866;2023-04-25T05:45:19;8.00;99.90
5023;DHT22;2530;47.990;7.866;2023-04-25T05:47:45;8.00;99.90
5023;DHT22;2530;47.990;7.866;2023-04-25T05:50:10;8.00;99.90
5023;DHT22;2530;47.990;7.866;2023-04-25T05:52:36;7.90;99.90
5023;DHT22;2530;47.990;7.866;2023-04-25T05:55:01;7.80;99.90
5023;DHT22;2530;47.990;7.866;2023-04-25T05:57:27;7.80;99.90
5023;DHT22;2530;47.990;7.866;2023-04-25T05:59:53;7.60;99.90
5023;DHT22;2530;47.990;7.866;2023-04-25T06:02:20;7.60;99.90
5023;DHT22;2530;47.990;7.866;2023-04-25T06:04:47;7.40;99.90
5023;DHT22;2530;47.990;7.866;2023-04-25T06:07:13;7.30;99.90
5023;DHT22;2530;47.990;7.866;2023-04-25T06:09:39;7.20;99.90
5023;DHT22;2530;47.990;7.866;2023-04-25T06:12:06;7.10;99.90
5023;DHT22;2530;47.990;7.866;2023-04-25T06:14:31;7.10;99.90
5023;DHT22;2530;47.990;7.866;2023-04-25T06:16:57;7.10;99.90
5023;DHT22;2530;47.990;7.866;2023-04-25T06:19:22;7.10;99.90
5023;DHT22;2530;47.990;7.866;2023-04-25T06:21:48;7.10;99.90
5023;DHT22;2530;47.990;7.866;2023-04-25T06:24:13;7.10;99.90
5023;DHT22;2530;47.990;7.866;2023-04-25T06:26:39;7.10;99.90
5023;DHT22;2530;47.990;7.866;2023-04-25T06:29:05;7.10;99.90
5023;DHT22;2530;47.990;7.866;2023-04-25T06:31:30;7.00;99.90
5023;DHT22;2530;47.990;7.866;2023-04-25T06:33:58;7.00;99.90
5023;DHT22;2530;47.990;7.866;2023-04-25T06:36:23;7.00;99.90
5023;DHT22;2530;47.990;7.866;2023-04-25T06:38:51;7.10;99.90
5023;DHT22;2530;47.990;7.866;2023-04-25T06:41:17;7.10;99.90
5023;DHT22;2530;47.990;7.866;2023-04-25T06:43:44;7.10;99.90
5023;DHT22;2530;47.990;7.866;2023-04-25T06:46:09;7.10;99.90
5023;DHT22;2530;47.990;7.866;2023-04-25T06:48:35;7.10;99.90
5023;DHT22;2530;47.990;7.866;2023-04-25T06:51:00;7.10;99.90
5023;DHT22;2530;47.990;7.866;2023-04-25T06:53:26;7.10;99.90
5023;DHT22;2530;47.990;7.866;2023-04-25T06:55:51;7.10;99.90
5023;DHT22;2530;47.990;7.866;2023-04-25T06:58:17;7.20;99.90
5023;DHT22;2530;47.990;7.866;2023-04-25T07:00:43;7.20;99.90
5023;DHT22;2530;47.990;7.866;2023-04-25T07:03:08;7.30;99.90
5023;DHT22;2530;47.990;7.866;2023-04-25T07:05:34;7.20;99.90
5023;DHT22;2530;47.990;7.866;2023-04-25T07:08:00;7.30;99.90
5023;DHT22;2530;47.990;7.866;2023-04-25T07:10:26;7.20;99.90
5023;DHT22;2530;47.990;7.866;2023-04-25T07:12:51;7.30;99.90
5023;DHT22;2530;47.990;7.866;2023-04-25T07:15:17;7.30;99.90
5023;DHT22;2530;47.990;7.866;2023-04-25T07:17:42;7.30;99.90
5023;DHT22;2530;47.990;7.866;2023-04-25T07:20:08;7.30;99.90
5023;DHT22;2530;47.990;7.866;2023-04-25T07:22:35;7.30;99.90
5023;DHT22;2530;47.990;7.866;2023-04-25T07:25:01;7.30;99.90
5023;DHT22;2530;47.990;7.866;2023-04-25T07:27:26;7.20;99.90
5023;DHT22;2530;47.990;7.866;2023-04-25T07:29:52;7.10;99.90
5023;DHT22;2530;47.990;7.866;2023-04-25T07:32:17;7.20;99.90
5023;DHT22;2530;47.990;7.866;2023-04-25T07:34:43;7.20;99.90
5023;DHT22;2530;47.990;7.866;2023-04-25T07:37:08;7.20;99.90
5023;DHT22;2530;47.990;7.866;2023-04-25T07:39:34;7.30;99.90
5023;DHT22;2530;47.990;7.866;2023-04-25T07:42:00;7.30;99.90
5023;DHT22;2530;47.990;7.866;2023-04-25T07:44:27;7.30;99.90
5023;DHT22;2530;47.990;7.866;2023-04-25T07:46:53;7.20;99.90
5023;DHT22;2530;47.990;7.866;2023-04-25T07:49:18;7.10;99.90
5023;DHT22;2530;47.990;7.866;2023-04-25T07:51:44;7.20;99.90
5023;DHT22;2530;47.990;7.866;2023-04-25T07:54:14;7.20;99.90
5023;DHT22;2530;47.990;7.866;2023-04-25T07:56:39;7.20;99.90
5023;DHT22;2530;47.990;7.866;2023-04-25T07:59:05;7.20;99.90
5023;DHT22;2530;47.990;7.866;2023-04-25T08:01:31;7.30;99.90
5023;DHT22;2530;47.990;7.866;2023-04-25T08:03:56;7.30;99.90
5023;DHT22;2530;47.990;7.866;2023-04-25T08:06:22;7.30;99.90
5023;DHT22;2530;47.990;7.866;2023-04-25T08:08:47;7.50;99.90
5023;DHT22;2530;47.990;7.866;2023-04-25T08:11:13;7.60;99.90
5023;DHT22;2530;47.990;7.866;2023-04-25T08:13:38;7.60;99.90
5023;DHT22;2530;47.990;7.866;2023-04-25T08:16:04;7.60;99.90
5023;DHT22;2530;47.990;7.866;2023-04-25T08:18:30;7.80;99.90
5023;DHT22;2530;47.990;7.866;2023-04-25T08:20:56;7.90;99.90
5023;DHT22;2530;47.990;7.866;2023-04-25T08:23:22;8.00;99.90
5023;DHT22;2530;47.990;7.866;2023-04-25T08:25:47;7.90;99.90
5023;DHT22;2530;47.990;7.866;2023-04-25T08:28:12;7.70;99.90
5023;DHT22;2530;47.990;7.866;2023-04-25T08:30:38;7.80;99.90
5023;DHT22;2530;47.990;7.866;2023-04-25T08:33:03;7.80;99.90
5023;DHT22;2530;47.990;7.866;2023-04-25T08:35:29;7.80;99.90
5023;DHT22;2530;47.990;7.866;2023-04-25T08:37:55;7.70;99.90
5023;DHT22;2530;47.990;7.866;2023-04-25T08:40:22;7.70;99.90
5023;DHT22;2530;47.990;7.866;2023-04-25T08:42:53;7.70;99.90
5023;DHT22;2530;47.990;7.866;2023-04-25T08:45:18;7.70;99.90
5023;DHT22;2530;47.990;7.866;2023-04-25T08:47:45;7.80;99.90
5023;DHT22;2530;47.990;7.866;2023-04-25T08:50:13;7.90;99.90
5023;DHT22;2530;47.990;7.866;2023-04-25T08:52:46;7.90;99.90
5023;DHT22;2530;47.990;7.866;2023-04-25T08:55:12;8.00;99.90
5023;DHT22;2530;47.990;7.866;2023-04-25T08:57:39;7.90;99.90
5023;DHT22;2530;47.990;7.866;2023-04-25T09:00:07;8.00;99.90
5023;DHT22;2530;47.990;7.866;2023-04-25T09:02:33;7.90;99.90
5023;DHT22;2530;47.990;7.866;2023-04-25T09:04:59;8.00;99.90
5023;DHT22;2530;47.990;7.866;2023-04-25T09:07:25;7.90;99.90
5023;DHT22;2530;47.990;7.866;2023-04-25T09:09:51;8.10;99.90
5023;DHT22;2530;47.990;7.866;2023-04-25T09:12:18;8.10;99.90
5023;DHT22;2530;47.990;7.866;2023-04-25T09:15:04;8.00;99.90
5023;DHT22;2530;47.990;7.866;2023-04-25T09:17:30;8.20;99.90
5023;DHT22;2530;47.990;7.866;2023-04-25T09:20:13;8.10;99.90
5023;DHT22;2530;47.990;7.866;2023-04-25T09:22:39;8.20;99.90
5023;DHT22;2530;47.990;7.866;2023-04-25T09:25:10;8.20;99.90
5023;DHT22;2530;47.990;7.866;2023-04-25T09:27:36;8.30;99.90
5023;DHT22;2530;47.990;7.866;2023-04-25T09:30:01;8.30;99.90
5023;DHT22;2530;47.990;7.866;2023-04-25T09:32:27;8.30;99.90
5023;DHT22;2530;47.990;7.866;2023-04-25T09:34:55;8.30;99.90
5023;DHT22;2530;47.990;7.866;2023-04-25T09:37:23;8.30;99.90
5023;DHT22;2530;47.990;7.866;2023-04-25T09:39:50;8.50;99.90
5023;DHT22;2530;47.990;7.866;2023-04-25T09:42:16;8.50;99.90
5023;DHT22;2530;47.990;7.866;2023-04-25T09:44:46;8.60;99.90
5023;DHT22;2530;47.990;7.866;2023-04-25T09:47:14;8.80;99.90
5023;DHT22;2530;47.990;7.866;2023-04-25T09:49:42;9.00;99.90
5023;DHT22;2530;47.990;7.866;2023-04-25T09:52:08;9.00;99.90
5023;DHT22;2530;47.990;7.866;2023-04-25T09:54:33;9.10;99.90
5023;DHT22;2530;47.990;7.866;2023-04-25T09:57:04;9.50;99.90
5023;DHT22;2530;47.990;7.866;2023-04-25T09:59:38;9.70;99.90
5023;DHT22;2530;47.990;7.866;2023-04-25T10:02:06;10.00;99.90
5023;DHT22;2530;47.990;7.866;2023-04-25T10:04:33;9.90;99.90
5023;DHT22;2530;47.990;7.866;2023-04-25T10:06:59;9.70;99.90
5023;DHT22;2530;47.990;7.866;2023-04-25T10:09:26;9.80;99.90
5023;DHT22;2530;47.990;7.866;2023-04-25T10:11:54;9.70;99.90
5023;DHT22;2530;47.990;7.866;2023-04-25T10:14:21;9.80;99.90
5023;DHT22;2530;47.990;7.866;2023-04-25T10:16:47;9.90;99.90
5023;DHT22;2530;47.990;7.866;2023-04-25T10:19:13;9.90;99.90
5023;DHT22;2530;47.990;7.866;2023-04-25T10:21:46;10.10;99.90
5023;DHT22;2530;47.990;7.866;2023-04-25T10:24:13;10.10;99.90
5023;DHT22;2530;47.990;7.866;2023-04-25T10:26:40;10.50;99.90
5023;DHT22;2530;47.990;7.866;2023-04-25T10:29:05;10.50;99.90
5023;DHT22;2530;47.990;7.866;2023-04-25T10:31:31;10.40;99.90
5023;DHT22;2530;47.990;7.866;2023-04-25T10:33:57;10.60;99.90
5023;DHT22;2530;47.990;7.866;2023-04-25T10:36:24;10.80;99.90
5023;DHT22;2530;47.990;7.866;2023-04-25T10:38:52;10.50;99.90
5023;DHT22;2530;47.990;7.866;2023-04-25T10:41:21;11.00;99.90
5023;DHT22;2530;47.990;7.866;2023-04-25T10:43:49;11.00;99.90
5023;DHT22;2530;47.990;7.866;2023-04-25T10:46:23;10.70;99.90
5023;DHT22;2530;47.990;7.866;2023-04-25T10:48:53;10.60;99.90
5023;DHT22;2530;47.990;7.866;2023-04-25T10:51:20;10.00;99.90
5023;DHT22;2530;47.990;7.866;2023-04-25T10:53:48;10.20;99.90
5023;DHT22;2530;47.990;7.866;2023-04-25T10:56:30;10.20;99.90
5023;DHT22;2530;47.990;7.866;2023-04-25T10:59:11;9.70;99.90
5023;DHT22;2530;47.990;7.866;2023-04-25T11:01:48;9.60;99.90
5023;DHT22;2530;47.990;7.866;2023-04-25T11:04:30;9.80;99.90
5023;DHT22;2530;47.990;7.866;2023-04-25T11:07:34;10.00;99.90
5023;DHT22;2530;47.990;7.866;2023-04-25T11:10:03;10.40;99.90
5023;DHT22;2530;47.990;7.866;2023-04-25T11:12:30;10.70;99.90
5023;DHT22;2530;47.990;7.866;2023-04-25T11:15:06;11.00;99.90
5023;DHT22;2530;47.990;7.866;2023-04-25T11:17:33;10.60;99.90
5023;DHT22;2530;47.990;7.866;2023-04-25T11:19:59;10.90;99.90
5023;DHT22;2530;47.990;7.866;2023-04-25T11:22:27;11.60;99.90
5023;DHT22;2530;47.990;7.866;2023-04-25T11:24:52;12.20;99.90
5023;DHT22;2530;47.990;7.866;2023-04-25T11:27:18;12.80;99.90
5023;DHT22;2530;47.990;7.866;2023-04-25T11:29:44;13.50;99.90
5023;DHT22;2530;47.990;7.866;2023-04-25T11:32:09;13.80;37.00
5023;DHT22;2530;47.990;7.866;2023-04-25T11:34:35;13.20;43.90
5023;DHT22;2530;47.990;7.866;2023-04-25T11:37:02;12.80;30.80
5023;DHT22;2530;47.990;7.866;2023-04-25T11:39:28;11.80;53.40
5023;DHT22;2530;47.990;7.866;2023-04-25T11:41:54;11.50;64.50
5023;DHT22;2530;47.990;7.866;2023-04-25T11:44:20;11.20;90.70
5023;DHT22;2530;47.990;7.866;2023-04-25T11:46:46;10.80;99.90
5023;DHT22;2530;47.990;7.866;2023-04-25T11:49:13;10.70;99.90
5023;DHT22;2530;47.990;7.866;2023-04-25T11:51:43;10.50;99.90
5023;DHT22;2530;47.990;7.866;2023-04-25T11:54:09;10.40;99.90
5023;DHT22;2530;47.990;7.866;2023-04-25T11:56:35;10.20;99.90
5023;DHT22;2530;47.990;7.866;2023-04-25T11:59:03;10.00;99.90
5023;DHT22;2530;47.990;7.866;2023-04-25T12:01:31;9.80;99.90
5023;DHT22;2530;47.990;7.866;2023-04-25T12:03:57;9.60;99.90
5023;DHT22;2530;47.990;7.866;2023-04-25T12:06:29;9.50;99.90
5023;DHT22;2530;47.990;7.866;2023-04-25T12:09:06;9.40;99.90
5023;DHT22;2530;47.990;7.866;2023-04-25T12:11:32;9.70;99.90
5023;DHT22;2530;47.990;7.866;2023-04-25T12:14:06;11.20;99.90
5023;DHT22;2530;47.990;7.866;2023-04-25T12:16:42;12.10;99.90
5023;DHT22;2530;47.990;7.866;2023-04-25T12:19:08;13.20;99.90
5023;DHT22;2530;47.990;7.866;2023-04-25T12:21:34;13.20;99.90
5023;DHT22;2530;47.990;7.866;2023-04-25T12:24:22;13.70;99.90
5023;DHT22;2530;47.990;7.866;2023-04-25T12:26:52;14.00;90.10
5023;DHT22;2530;47.990;7.866;2023-04-25T12:29:22;13.80;99.90
5023;DHT22;2530;47.990;7.866;2023-04-25T12:31:49;14.30;99.90
5023;DHT22;2530;47.990;7.866;2023-04-25T12:34:15;15.00;97.00
5023;DHT22;2530;47.990;7.866;2023-04-25T12:36:41;15.70;51.90
5023;DHT22;2530;47.990;7.866;2023-04-25T12:39:06;15.10;36.60
5023;DHT22;2530;47.990;7.866;2023-04-25T12:41:33;13.50;43.80
5023;DHT22;2530;47.990;7.866;2023-04-25T12:43:58;13.10;63.30
5023;DHT22;2530;47.990;7.866;2023-04-25T12:46:24;12.80;99.90
5023;DHT22;2530;47.990;7.866;2023-04-25T12:48:50;12.80;74.70
5023;DHT22;2530;47.990;7.866;2023-04-25T12:51:16;12.70;77.30
5023;DHT22;2530;47.990;7.866;2023-04-25T12:53:41;12.40;99.00
5023;DHT22;2530;47.990;7.866;2023-04-25T12:56:07;12.50;98.90
5023;DHT22;2530;47.990;7.866;2023-04-25T12:58:33;12.60;99.90
5023;DHT22;2530;47.990;7.866;2023-04-25T13:00:59;12.40;63.90
5023;DHT22;2530;47.990;7.866;2023-04-25T13:03:25;12.40;92.40
5023;DHT22;2530;47.990;7.866;2023-04-25T13:05:51;12.50;65.30
5023;DHT22;2530;47.990;7.866;2023-04-25T13:08:18;12.50;45.00
5023;DHT22;2530;47.990;7.866;2023-04-25T13:10:43;12.60;73.30
5023;DHT22;2530;47.990;7.866;2023-04-25T13:13:09;12.60;89.00
5023;DHT22;2530;47.990;7.866;2023-04-25T13:15:34;12.30;99.90
5023;DHT22;2530;47.990;7.866;2023-04-25T13:18:00;12.20;88.90
5023;DHT22;2530;47.990;7.866;2023-04-25T13:20:26;12.00;99.90
5023;DHT22;2530;47.990;7.866;2023-04-25T13:22:51;12.10;82.00
5023;DHT22;2530;47.990;7.866;2023-04-25T13:25:17;12.10;79.40
5023;DHT22;2530;47.990;7.866;2023-04-25T13:27:42;12.20;99.90
5023;DHT22;2530;47.990;7.866;2023-04-25T13:30:09;12.30;59.40
5023;DHT22;2530;47.990;7.866;2023-04-25T13:32:35;12.20;98.30
5023;DHT22;2530;47.990;7.866;2023-04-25T13:35:02;11.60;99.90
5023;DHT22;2530;47.990;7.866;2023-04-25T13:37:28;10.80;99.90
5023;DHT22;2530;47.990;7.866;2023-04-25T13:39:55;10.60;99.90
5023;DHT22;2530;47.990;7.866;2023-04-25T13:42:22;10.20;99.90
5023;DHT22;2530;47.990;7.866;2023-04-25T13:44:48;9.90;99.90
5023;DHT22;2530;47.990;7.866;2023-04-25T13:47:13;9.90;99.90
5023;DHT22;2530;47.990;7.866;2023-04-25T13:49:39;10.00;99.90
5023;DHT22;2530;47.990;7.866;2023-04-25T13:52:05;10.00;99.90
5023;DHT22;2530;47.990;7.866;2023-04-25T13:54:31;10.20;99.90
5023;DHT22;2530;47.990;7.866;2023-04-25T13:56:57;10.30;99.90
5023;DHT22;2530;47.990;7.866;2023-04-25T13:59:24;10.20;99.90
5023;DHT22;2530;47.990;7.866;2023-04-25T14:01:51;10.40;99.90
5023;DHT22;2530;47.990;7.866;2023-04-25T14:04:16;10.80;99.90
5023;DHT22;2530;47.990;7.866;2023-04-25T14:06:42;11.10;99.90
5023;DHT22;2530;47.990;7.866;2023-04-25T14:09:08;10.80;99.90
5023;DHT22;2530;47.990;7.866;2023-04-25T14:11:37;11.10;99.90
5023;DHT22;2530;47.990;7.866;2023-04-25T14:14:02;11.40;99.90
5023;DHT22;2530;47.990;7.866;2023-04-25T14:16:29;12.40;99.90
5023;DHT22;2530;47.990;7.866;2023-04-25T14:18:55;13.00;77.30
5023;DHT22;2530;47.990;7.866;2023-04-25T14:21:20;12.90;55.50
5023;DHT22;2530;47.990;7.866;2023-04-25T14:23:46;12.50;58.60
5023;DHT22;2530;47.990;7.866;2023-04-25T14:26:12;13.30;58.00
5023;DHT22;2530;47.990;7.866;2023-04-25T14:28:38;13.90;55.90
5023;DHT22;2530;47.990;7.866;2023-04-25T14:31:12;13.10;48.50
5023;DHT22;2530;47.990;7.866;2023-04-25T14:33:37;12.80;80.70
5023;DHT22;2530;47.990;7.866;2023-04-25T14:36:07;12.40;61.80
5023;DHT22;2530;47.990;7.866;2023-04-25T14:38:32;12.30;79.60
5023;DHT22;2530;47.990;7.866;2023-04-25T14:40:58;12.40;89.10
5023;DHT22;2530;47.990;7.866;2023-04-25T14:43:26;12.40;96.50
5023;DHT22;2530;47.990;7.866;2023-04-25T14:45:53;12.40;93.00
5023;DHT22;2530;47.990;7.866;2023-04-25T14:48:18;12.20;94.30
5023;DHT22;2530;47.990;7.866;2023-04-25T14:50:45;12.30;99.90
5023;DHT22;2530;47.990;7.866;2023-04-25T14:53:11;12.00;95.20
5023;DHT22;2530;47.990;7.866;2023-04-25T14:55:37;11.90;99.90
5023;DHT22;2530;47.990;7.866;2023-04-25T14:58:03;11.90;99.90
5023;DHT22;2530;47.990;7.866;2023-04-25T15:00:28;11.80;99.90
5023;DHT22;2530;47.990;7.866;2023-04-25T15:02:55;11.50;99.90
5023;DHT22;2530;47.990;7.866;2023-04-25T15:05:21;11.40;68.10
5023;DHT22;2530;47.990;7.866;2023-04-25T15:07:49;11.30;60.40
5023;DHT22;2530;47.990;7.866;2023-04-25T15:10:16;11.10;99.90
5023;DHT22;2530;47.990;7.866;2023-04-25T15:12:45;10.90;99.80
5023;DHT22;2530;47.990;7.866;2023-04-25T15:15:11;10.10;99.90
5023;DHT22;2530;47.990;7.866;2023-04-25T15:17:43;9.90;99.90
5023;DHT22;2530;47.990;7.866;2023-04-25T15:20:11;9.60;99.90
5023;DHT22;2530;47.990;7.866;2023-04-25T15:22:40;9.50;99.90
5023;DHT22;2530;47.990;7.866;2023-04-25T15:25:07;9.40;99.90
5023;DHT22;2530;47.990;7.866;2023-04-25T15:27:33;9.30;99.90
5023;DHT22;2530;47.990;7.866;2023-04-25T15:30:04;9.20;99.90
5023;DHT22;2530;47.990;7.866;2023-04-25T15:32:30;9.20;99.90
5023;DHT22;2530;47.990;7.866;2023-04-25T15:34:56;9.30;99.90
5023;DHT22;2530;47.990;7.866;2023-04-25T15:37:21;9.30;99.90
5023;DHT22;2530;47.990;7.866;2023-04-25T15:39:47;9.30;99.90
5023;DHT22;2530;47.990;7.866;2023-04-25T15:42:13;9.60;99.90
5023;DHT22;2530;47.990;7.866;2023-04-25T15:44:38;9.70;99.90
5023;DHT22;2530;47.990;7.866;2023-04-25T15:47:04;9.70;99.90
5023;DHT22;2530;47.990;7.866;2023-04-25T15:49:30;9.80;99.90
5023;DHT22;2530;47.990;7.866;2023-04-25T15:51:55;9.60;99.90
5023;DHT22;2530;47.990;7.866;2023-04-25T15:54:21;9.80;99.90
5023;DHT22;2530;47.990;7.866;2023-04-25T15:56:47;9.80;99.90
5023;DHT22;2530;47.990;7.866;2023-04-25T15:59:12;9.60;99.90
5023;DHT22;2530;47.990;7.866;2023-04-25T16:01:38;9.70;99.90
5023;DHT22;2530;47.990;7.866;2023-04-25T16:04:05;9.70;99.90
5023;DHT22;2530;47.990;7.866;2023-04-25T16:06:30;10.00;99.90